This is the latest recevied weather packets stored in our database for station/object K1ADM. If no packets are shown the sender has not sent any weather packets the latest 10 day(s).
| Time | Temp. | Humidity | Pressure | Rain* | Wind** | Luminosity | Snow |
|---|---|---|---|---|---|---|---|
| 1777704603 | 5.56° C | 67% | 1011 hPa | 0 mm | - | - | - |
| 1777699803 | 6.11° C | 61% | 1011.1 hPa | 0 mm | - | - | - |
| 1777699504 | 5.56° C | 61% | 1011.1 hPa | 0 mm | - | - | - |
| 1777694103 | 7.22° C | 53% | 1010.8 hPa | 0 mm | - | - | - |
| 1777691403 | 8.33° C | 52% | 1010.6 hPa | 0 mm | - | - | - |
| 1777691104 | 8.33° C | 52% | 1010.6 hPa | 0 mm | - | - | - |
| 1777690504 | 8.33° C | 52% | 1010.5 hPa | 0 mm | - | - | - |
| 1777689604 | 8.33° C | 51% | 1010.5 hPa | 0 mm | - | - | - |
| 1777685704 | 10° C | 46% | 1010.4 hPa | 0 mm | - | - | - |
| 1777685701 | 10° C | 46% | 1010.4 hPa | 0 mm | - | - | - |
| 1777685402 | 10° C | 46% | 1010.4 hPa | 0 mm | - | - | - |
| 1777683601 | 10.56° C | 45% | 1009.9 hPa | 0 mm | - | - | - |
| 1777682101 | 11.11° C | 44% | 1009.4 hPa | 0 mm | - | - | - |
| 1777673101 | 14.44° C | 38% | 1006.9 hPa | 0 mm | - | - | - |
| 1777670102 | 15.56° C | 38% | 1006.4 hPa | 0 mm | - | - | - |
| 1777669502 | 15.56° C | 39% | 1006.2 hPa | 0 mm | - | - | - |
| 1777665601 | 15.56° C | 42% | 1005.8 hPa | 0 mm | - | - | - |
| 1777665301 | 15.56° C | 43% | 1005.8 hPa | 0 mm | - | - | - |
| 1777663802 | 15° C | 43% | 1005.8 hPa | 0 mm | - | - | - |
| 1777660502 | 15.56° C | 47% | 1005.6 hPa | 0 mm | - | - | - |
| 1777658102 | 15° C | 50% | 1005.9 hPa | 0 mm | - | - | - |
| 1777648802 | 13.33° C | 53% | 1006.2 hPa | 0 mm | - | - | - |
| 1777645802 | 12.22° C | 58% | 1006.7 hPa | 0 mm | - | - | - |
| 1777645202 | 12.22° C | 58% | 1006.5 hPa | 0 mm | - | - | - |
| 1777643102 | 11.11° C | 65% | 1006.3 hPa | 0 mm | - | - | - |
* Rain latest hour (hover to see other rain measurements)
** Current wind speed in m/s (hover to see current wind gust speed)